Time;durP1;ratioP1;P1;durP2;ratioP2;P2;SDS_P1;SDS_P2;PMS_P1;PMS_P2;Temp;Humidity;BMP_temperature;BMP_pressure;BME280_temperature;BME280_humidity;BME280_pressure;Samples;Min_cycle;Max_cycle;Signal;HPM_P1;HPM_P2
2023/03/07 00:01:30;;;;;;;15.38;3.90;;;;;;;-146.27;100.00;48379.66;5088308;28;20107;-69
2023/03/07 00:03:56;;;;;;;10.65;5.32;;;;;;;-146.27;100.00;48375.69;5083535;28;20073;-67
2023/03/07 00:06:22;;;;;;;11.15;4.72;;;;;;;-146.27;100.00;48349.78;5092678;28;20074;-68
2023/03/07 00:08:51;;;;;;;11.50;4.07;;;;;;;-146.27;100.00;48387.63;5086127;28;20460;-67
2023/03/07 00:11:17;;;;;;;12.13;4.65;;;;;;;-146.27;100.00;48419.50;5087244;28;20486;-68
2023/03/07 00:13:43;;;;;;;13.30;4.80;;;;;;;-146.27;100.00;48399.59;5090321;28;20032;-68
2023/03/07 00:16:14;;;;;;;9.80;5.10;;;;;;;-146.27;100.00;48369.72;5084063;28;20086;-69
2023/03/07 00:18:40;;;;;;;15.90;4.55;;;;;;;-146.27;100.00;48397.59;5082037;28;20576;-68
2023/03/07 00:21:08;;;;;;;10.18;4.07;;;;;;;-146.27;100.00;48403.56;5086393;28;20472;-68
2023/03/07 00:23:35;;;;;;;11.02;4.95;;;;;;;-146.27;100.00;48369.72;5092801;28;20035;-69
2023/03/07 00:26:06;;;;;;;7.88;3.97;;;;;;;-146.27;100.00;48391.63;5081549;28;20382;-67
2023/03/07 00:28:32;;;;;;;12.35;3.70;;;;;;;-146.27;100.00;48399.59;5082856;28;20020;-68
2023/03/07 00:30:59;;;;;;;13.02;3.47;;;;;;;-146.27;100.00;48399.59;5087423;28;20046;-67
2023/03/07 00:33:25;;;;;;;12.52;3.83;;;;;;;-146.27;100.00;48375.69;5086529;28;20123;-68
2023/03/07 00:36:01;;;;;;;9.13;4.15;;;;;;;-146.27;100.00;48439.41;5090518;28;20110;-67
2023/03/07 00:38:28;;;;;;;14.30;3.22;;;;;;;-146.27;100.00;48395.59;5076647;28;20479;-67
2023/03/07 00:41:03;;;;;;;11.55;3.90;;;;;;;-146.27;100.00;48407.56;5073474;28;20029;-68
2023/03/07 00:43:30;;;;;;;13.07;3.50;;;;;;;-146.27;100.00;48375.69;5089862;28;20035;-68
2023/03/07 00:45:55;;;;;;;8.48;2.85;;;;;;;-146.27;100.00;48419.50;5089322;28;20033;-67
2023/03/07 00:48:21;;;;;;;12.43;3.00;;;;;;;-146.27;100.00;48357.75;5087156;28;20092;-68
2023/03/07 00:50:46;;;;;;;9.82;3.30;;;;;;;-146.27;100.00;48411.53;5091441;28;20410;-68
2023/03/07 00:53:12;;;;;;;12.77;2.70;;;;;;;-146.27;100.00;48359.75;5091172;28;20019;-67
2023/03/07 00:55:37;;;;;;;10.65;2.45;;;;;;;-146.27;100.00;48399.59;5088748;28;20028;-68
2023/03/07 00:58:02;;;;;;;9.82;2.80;;;;;;;-146.27;100.00;48359.75;5092216;28;20032;-67
2023/03/07 01:00:28;;;;;;;12.65;1.80;;;;;;;-146.27;100.00;48383.66;5089317;28;20365;-66
2023/03/07 01:02:53;;;;;;;5.75;1.80;;;;;;;-146.27;100.00;48349.78;5087449;28;20107;-69
2023/03/07 01:05:19;;;;;;;13.65;2.00;;;;;;;-146.27;100.00;48371.69;5090492;28;20036;-68
2023/03/07 01:07:44;;;;;;;15.30;2.60;;;;;;;-146.27;100.00;48355.78;5092538;28;20024;-68
2023/03/07 01:10:10;;;;;;;8.57;1.92;;;;;;;-146.27;100.00;48401.56;5088544;28;20063;-68
2023/03/07 01:12:35;;;;;;;16.15;2.03;;;;;;;-146.27;100.00;48385.66;5090793;28;20058;-67
2023/03/07 01:15:04;;;;;;;9.32;1.90;;;;;;;-146.27;100.00;48379.66;5089515;28;20027;-69
2023/03/07 01:17:29;;;;;;;4.32;1.30;;;;;;;-146.27;100.00;48361.75;5084159;28;20108;-68
2023/03/07 01:19:55;;;;;;;13.13;1.95;;;;;;;-146.27;100.00;48375.69;5080576;28;20140;-68
2023/03/07 01:22:20;;;;;;;16.63;1.48;;;;;;;-146.27;100.00;48403.56;5088516;28;20352;-69
2023/03/07 01:24:45;;;;;;;9.52;2.08;;;;;;;-146.27;100.00;48403.56;5086273;28;20031;-68
2023/03/07 01:27:11;;;;;;;12.93;2.05;;;;;;;-146.27;100.00;48395.59;5091367;28;20031;-67
2023/03/07 01:29:36;;;;;;;12.85;1.35;;;;;;;-146.27;100.00;48365.72;5087516;28;20032;-68
2023/03/07 01:32:01;;;;;;;8.73;1.60;;;;;;;-146.27;100.00;48383.66;5076026;28;20374;-68
2023/03/07 01:34:27;;;;;;;10.32;1.75;;;;;;;-146.27;100.00;48375.69;5081622;28;20081;-69
2023/03/07 01:36:52;;;;;;;5.47;1.33;;;;;;;-146.27;100.00;48399.59;5091128;28;20089;-68
2023/03/07 01:39:17;;;;;;;8.90;1.48;;;;;;;-146.27;100.00;48383.66;5088789;28;20108;-70
2023/03/07 01:41:44;;;;;;;8.98;1.70;;;;;;;-146.27;100.00;48361.75;5084352;28;20059;-69
2023/03/07 01:44:22;;;;;;;6.15;1.25;;;;;;;-146.27;100.00;48361.75;5088350;28;20055;-68
2023/03/07 01:46:52;;;;;;;8.80;1.20;;;;;;;-146.27;100.00;48379.66;5091583;28;20160;-68
2023/03/07 01:49:23;;;;;;;5.88;1.27;;;;;;;-146.27;100.00;48403.56;5091419;28;20073;-69
2023/03/07 01:52:15;;;;;;;13.38;1.80;;;;;;;-146.27;100.00;48403.56;5090044;28;20500;-68
2023/03/07 01:54:47;;;;;;;4.53;1.08;;;;;;;-146.27;100.00;48371.69;5084542;28;20032;-67
2023/03/07 01:57:14;;;;;;;5.25;1.13;;;;;;;-146.27;100.00;48383.66;5091140;28;20032;-67
2023/03/07 01:59:44;;;;;;;8.88;1.33;;;;;;;-146.27;100.00;48383.66;5080707;28;20016;-67
2023/03/07 02:02:13;;;;;;;6.10;1.20;;;;;;;-146.27;100.00;48365.72;5081524;28;20060;-69
2023/03/07 02:04:45;;;;;;;8.45;1.73;;;;;;;-146.27;100.00;48391.63;5085998;28;20039;-69
2023/03/07 02:07:12;;;;;;;15.40;1.88;;;;;;;-146.27;100.00;48383.66;5090936;28;20060;-69
2023/03/07 02:09:40;;;;;;;9.13;2.25;;;;;;;-146.27;100.00;48405.56;5082759;28;20119;-67
2023/03/07 02:12:06;;;;;;;12.25;1.60;;;;;;;-146.27;100.00;48379.66;5093223;28;20019;-67
2023/03/07 02:14:32;;;;;;;12.07;2.72;;;;;;;-146.27;100.00;48385.66;5092364;28;20028;-69
2023/03/07 02:16:57;;;;;;;14.45;1.95;;;;;;;-146.27;100.00;48365.72;5077170;28;20063;-69
2023/03/07 02:20:07;;;;;;;8.75;1.80;;;;;;;-146.27;100.00;48391.63;5092926;28;20072;-68
2023/03/07 02:22:32;;;;;;;9.77;2.63;;;;;;;-146.27;100.00;48391.63;5093602;28;20387;-66
2023/03/07 02:25:10;;;;;;;9.07;2.08;;;;;;;-146.27;100.00;48407.56;5084811;28;20119;-67
2023/03/07 02:27:36;;;;;;;6.93;2.30;;;;;;;-146.27;100.00;48355.78;5081323;28;20389;-68
2023/03/07 02:30:03;;;;;;;7.60;2.67;;;;;;;-146.27;100.00;48387.63;5092436;28;20102;-67
2023/03/07 02:32:28;;;;;;;14.88;2.72;;;;;;;-146.27;100.00;48353.78;5085977;28;20106;-68
2023/03/07 02:34:54;;;;;;;4.43;2.20;;;;;;;-146.27;100.00;48379.66;5091620;28;20439;-67
2023/03/07 02:37:25;;;;;;;12.88;2.50;;;;;;;-146.27;100.00;48365.72;5094534;28;20035;-66
2023/03/07 02:39:53;;;;;;;15.02;2.97;;;;;;;-146.27;100.00;48383.66;5086572;28;20038;-69
2023/03/07 02:42:25;;;;;;;14.20;2.60;;;;;;;-146.27;100.00;48399.59;5095354;28;20031;-68
2023/03/07 02:44:59;;;;;;;8.80;2.70;;;;;;;-146.27;100.00;48379.66;5092452;28;20044;-69
2023/03/07 02:47:25;;;;;;;10.50;2.80;;;;;;;-146.27;100.00;48397.59;5087017;28;20036;-67
2023/03/07 02:49:50;;;;;;;11.77;2.80;;;;;;;-146.27;100.00;48385.66;5094213;28;20538;-68
2023/03/07 02:52:15;;;;;;;18.73;3.17;;;;;;;-146.27;100.00;48357.75;5094366;28;20047;-68
2023/03/07 02:54:41;;;;;;;6.65;3.53;;;;;;;-146.27;100.00;48369.72;5093719;28;20397;-68
2023/03/07 02:57:06;;;;;;;7.82;2.20;;;;;;;-146.27;100.00;48371.69;5094461;28;20468;-68
2023/03/07 02:59:32;;;;;;;10.57;2.70;;;;;;;-146.27;100.00;48369.72;5090953;28;20028;-69
2023/03/07 03:01:57;;;;;;;7.40;2.90;;;;;;;-146.27;100.00;48383.66;5088647;28;20024;-68
2023/03/07 03:04:23;;;;;;;9.55;3.10;;;;;;;-146.27;100.00;48383.66;5093054;28;20034;-69
2023/03/07 03:06:48;;;;;;;9.65;2.42;;;;;;;-146.27;100.00;48391.63;5093648;28;20048;-69
2023/03/07 03:09:14;;;;;;;6.65;2.70;;;;;;;-146.27;100.00;48367.72;5094579;28;20028;-68
2023/03/07 03:11:39;;;;;;;8.15;2.50;;;;;;;-146.27;100.00;48353.78;5090221;28;20028;-68
2023/03/07 03:14:05;;;;;;;10.30;2.65;;;;;;;-146.27;100.00;48395.59;5083426;28;20048;-67
2023/03/07 03:16:30;;;;;;;8.45;2.70;;;;;;;-146.27;100.00;48359.75;5093471;28;20048;-69
2023/03/07 03:18:55;;;;;;;8.63;2.80;;;;;;;-146.27;100.00;48371.69;5081033;28;20027;-69
2023/03/07 03:21:21;;;;;;;8.23;2.95;;;;;;;-146.27;100.00;48403.56;5092288;28;20040;-68
2023/03/07 03:23:46;;;;;;;6.80;2.78;;;;;;;-146.27;100.00;48357.75;5091676;28;20043;-69
2023/03/07 03:26:11;;;;;;;15.48;3.10;;;;;;;-146.27;100.00;48375.69;5091907;28;20051;-69
2023/03/07 03:28:38;;;;;;;11.43;3.40;;;;;;;-146.27;100.00;48399.59;5092271;28;20511;-68
2023/03/07 03:31:07;;;;;;;11.25;3.20;;;;;;;-146.27;100.00;48387.63;5092645;28;20472;-68
2023/03/07 03:33:32;;;;;;;5.22;2.80;;;;;;;-146.27;100.00;48375.69;5089058;28;20024;-69
2023/03/07 03:36:00;;;;;;;10.57;2.95;;;;;;;-146.27;100.00;48351.78;5077692;28;20107;-68
2023/03/07 03:38:25;;;;;;;9.88;3.10;;;;;;;-146.27;100.00;48401.56;5084460;28;20115;-69
2023/03/07 03:40:51;;;;;;;5.97;2.15;;;;;;;-146.27;100.00;48403.56;5091954;28;20030;-68
2023/03/07 03:43:16;;;;;;;8.13;1.38;;;;;;;-146.27;100.00;48359.75;5091130;28;20028;-68
2023/03/07 03:45:42;;;;;;;3.20;1.40;;;;;;;-146.27;100.00;48407.56;5091370;28;20031;-68
2023/03/07 03:48:08;;;;;;;7.72;1.45;;;;;;;-146.27;100.00;48381.66;5090866;28;20012;-69
2023/03/07 03:50:33;;;;;;;6.72;2.10;;;;;;;-146.27;100.00;48385.66;5089679;28;20373;-67
2023/03/07 03:53:00;;;;;;;3.90;1.33;;;;;;;-146.27;100.00;48399.59;5093102;28;20020;-67
2023/03/07 03:55:25;;;;;;;3.55;1.48;;;;;;;-146.27;100.00;48367.72;5087173;28;20512;-70
2023/03/07 03:57:50;;;;;;;7.07;1.50;;;;;;;-146.27;100.00;48391.63;5093783;28;20235;-68
2023/03/07 04:00:18;;;;;;;8.23;0.98;;;;;;;-146.27;100.00;48379.66;5090677;28;20035;-68
2023/03/07 04:02:44;;;;;;;5.60;1.48;;;;;;;-146.27;100.00;48407.56;5074470;28;20036;-68
2023/03/07 04:05:10;;;;;;;9.43;1.70;;;;;;;-146.27;100.00;48419.50;5091191;28;20050;-68
2023/03/07 04:07:35;;;;;;;6.68;0.95;;;;;;;-146.27;100.00;48405.56;5093153;28;20052;-69
2023/03/07 04:10:00;;;;;;;7.22;1.40;;;;;;;-146.27;100.00;48367.72;5092483;28;20505;-68
2023/03/07 04:12:26;;;;;;;12.35;1.58;;;;;;;-146.27;100.00;48403.56;5092733;28;20543;-70
2023/03/07 04:14:51;;;;;;;13.95;1.23;;;;;;;-146.27;100.00;48385.66;5087855;28;20533;-68
2023/03/07 04:17:16;;;;;;;7.03;0.95;;;;;;;-146.27;100.00;48407.56;5086171;28;20028;-68
2023/03/07 04:19:42;;;;;;;7.97;1.50;;;;;;;-146.27;100.00;48359.75;5090928;28;20020;-68
2023/03/07 04:22:07;;;;;;;12.23;1.13;;;;;;;-146.27;100.00;48371.69;5088213;28;20027;-68
2023/03/07 04:24:32;;;;;;;10.35;1.45;;;;;;;-146.27;100.00;48359.75;5088915;28;20066;-68
2023/03/07 04:26:58;;;;;;;4.88;0.90;;;;;;;-146.27;100.00;48375.69;5092677;28;20097;-67
2023/03/07 04:29:23;;;;;;;5.88;0.90;;;;;;;-146.27;100.00;48365.72;5091718;28;20027;-69
2023/03/07 04:31:49;;;;;;;6.88;0.90;;;;;;;-146.27;100.00;48415.53;5087277;28;20035;-69
2023/03/07 04:34:14;;;;;;;7.75;1.38;;;;;;;-146.27;100.00;48387.63;5089637;28;20055;-67
2023/03/07 04:36:39;;;;;;;4.88;0.93;;;;;;;-146.27;100.00;48403.56;5090902;28;20452;-69
2023/03/07 04:39:05;;;;;;;6.35;0.80;;;;;;;-146.27;100.00;48395.59;5092554;28;20043;-67
2023/03/07 04:41:32;;;;;;;5.60;0.95;;;;;;;-146.27;100.00;48385.66;5076943;28;20032;-68
2023/03/07 04:43:57;;;;;;;4.45;1.17;;;;;;;-146.27;100.00;48375.69;5081988;28;20027;-68
2023/03/07 04:46:24;;;;;;;5.47;1.02;;;;;;;-146.27;100.00;48409.53;5086360;28;20024;-69
2023/03/07 04:48:49;;;;;;;2.03;0.68;;;;;;;-146.27;100.00;48381.66;5090160;28;20731;-68
2023/03/07 04:51:14;;;;;;;6.82;1.85;;;;;;;-146.27;100.00;48385.66;5078250;28;20024;-68
2023/03/07 04:53:40;;;;;;;4.90;0.80;;;;;;;-146.27;100.00;48351.78;5091790;28;20032;-68
2023/03/07 04:56:07;;;;;;;1.50;0.60;;;;;;;-146.27;100.00;48361.75;5089927;28;20020;-66
2023/03/07 04:58:34;;;;;;;7.20;1.00;;;;;;;-146.27;100.00;48391.63;5087077;28;20062;-70
2023/03/07 05:01:01;;;;;;;17.02;1.27;;;;;;;-146.27;100.00;48393.63;5082881;28;20058;-68
2023/03/07 05:03:28;;;;;;;6.53;0.95;;;;;;;-146.27;100.00;48403.56;5092636;28;20112;-69
2023/03/07 05:05:53;;;;;;;2.47;0.77;;;;;;;-146.27;100.00;48405.56;5081617;28;20055;-69
2023/03/07 05:08:20;;;;;;;5.32;0.77;;;;;;;-146.27;100.00;48365.72;5093102;28;20024;-68
2023/03/07 05:10:45;;;;;;;4.55;1.00;;;;;;;-146.27;100.00;48387.63;5077236;28;20064;-67
2023/03/07 05:13:11;;;;;;;3.33;0.47;;;;;;;-146.27;100.00;48363.75;5088060;28;20032;-68
2023/03/07 05:15:36;;;;;;;3.97;1.08;;;;;;;-146.27;100.00;48355.78;5091718;28;20040;-68
2023/03/07 05:18:02;;;;;;;9.63;0.65;;;;;;;-146.27;100.00;48377.69;5088247;28;20513;-67
2023/03/07 05:20:28;;;;;;;5.18;1.20;;;;;;;-146.27;100.00;48377.69;5072255;28;20029;-68
2023/03/07 05:22:57;;;;;;;8.93;0.77;;;;;;;-146.27;100.00;48415.53;5089109;28;20031;-70
2023/03/07 05:25:22;;;;;;;7.53;0.70;;;;;;;-146.27;100.00;48387.63;5091143;28;20106;-67
2023/03/07 05:27:47;;;;;;;6.25;0.98;;;;;;;-146.27;100.00;48405.56;5088428;28;20135;-68
2023/03/07 05:30:15;;;;;;;3.00;0.90;;;;;;;-146.27;100.00;48387.63;5091206;28;20035;-68
2023/03/07 05:32:40;;;;;;;1.15;0.77;;;;;;;-146.27;100.00;48379.66;5092313;28;20043;-68
2023/03/07 05:35:08;;;;;;;1.05;0.40;;;;;;;-146.27;100.00;48411.53;5090730;28;20024;-69
2023/03/07 05:37:34;;;;;;;3.97;0.60;;;;;;;-146.27;100.00;48403.56;5087035;28;20039;-68
2023/03/07 05:39:59;;;;;;;2.72;0.65;;;;;;;-146.27;100.00;48375.69;5084996;28;20379;-66
2023/03/07 05:42:24;;;;;;;2.72;0.60;;;;;;;-146.27;100.00;48403.56;5092434;28;20020;-67
2023/03/07 05:44:50;;;;;;;1.80;0.55;;;;;;;-146.27;100.00;48407.56;5091764;28;20035;-68
2023/03/07 05:47:15;;;;;;;3.55;0.60;;;;;;;-146.27;100.00;48417.50;5091550;28;20028;-68
2023/03/07 05:49:41;;;;;;;1.58;0.70;;;;;;;-146.27;100.00;48401.56;5092173;28;20032;-68
2023/03/07 05:52:06;;;;;;;5.40;0.65;;;;;;;-146.27;100.00;48401.56;5092149;28;20550;-68
2023/03/07 05:54:31;;;;;;;4.88;0.77;;;;;;;-146.27;100.00;48407.56;5084964;28;20086;-68
2023/03/07 05:56:57;;;;;;;7.03;0.70;;;;;;;-146.27;100.00;48403.56;5094821;28;20111;-68
2023/03/07 05:59:22;;;;;;;5.65;1.27;;;;;;;-146.27;100.00;48413.53;5086307;28;20036;-68
2023/03/07 06:01:47;;;;;;;2.88;0.73;;;;;;;-146.27;100.00;48391.63;5091261;28;20032;-67
2023/03/07 06:04:13;;;;;;;3.33;0.73;;;;;;;-146.27;100.00;48361.75;5085860;28;20020;-69
2023/03/07 06:06:38;;;;;;;4.30;0.68;;;;;;;-146.27;100.00;48381.66;5084481;28;20472;-66
2023/03/07 06:09:04;;;;;;;1.73;0.73;;;;;;;-146.27;100.00;48391.63;5080848;28;20467;-67
2023/03/07 06:11:32;;;;;;;2.78;0.98;;;;;;;-146.27;100.00;48389.63;5086631;28;20472;-71
2023/03/07 06:13:58;;;;;;;2.70;1.25;;;;;;;-146.27;100.00;48377.69;5090962;28;20425;-68
2023/03/07 06:16:23;;;;;;;3.47;0.75;;;;;;;-146.27;100.00;48385.66;5087423;28;20020;-69
2023/03/07 06:18:49;;;;;;;5.88;0.80;;;;;;;-146.27;100.00;48395.59;5089967;28;20036;-68
2023/03/07 06:21:16;;;;;;;3.75;0.70;;;;;;;-146.27;100.00;48385.66;5089843;28;20028;-68
2023/03/07 06:23:42;;;;;;;0.30;0.30;;;;;;;-146.27;100.00;48383.66;5095578;28;20028;-67
2023/03/07 06:26:09;;;;;;;4.70;0.68;;;;;;;-146.27;100.00;48399.59;5095661;28;20093;-68
2023/03/07 06:28:35;;;;;;;4.82;0.55;;;;;;;-146.27;100.00;48393.63;5087500;28;20012;-70
2023/03/07 06:31:06;;;;;;;3.15;0.70;;;;;;;-146.27;100.00;48375.69;5088637;28;20120;-68
2023/03/07 06:33:31;;;;;;;5.07;0.70;;;;;;;-146.27;100.00;48423.50;5086672;28;20032;-68
2023/03/07 06:35:56;;;;;;;3.83;1.05;;;;;;;-146.27;100.00;48413.53;5089888;28;20031;-69
2023/03/07 06:38:22;;;;;;;3.50;0.70;;;;;;;-146.27;100.00;48409.53;5091387;28;20016;-68
2023/03/07 06:40:55;;;;;;;3.40;0.57;;;;;;;-146.27;100.00;48419.50;5076708;28;20035;-68
2023/03/07 06:43:21;;;;;;;6.72;0.95;;;;;;;-146.27;100.00;48399.59;5083081;28;20089;-68
2023/03/07 06:45:46;;;;;;;6.63;0.88;;;;;;;-146.27;100.00;48399.59;5091004;28;20044;-68
2023/03/07 06:48:12;;;;;;;4.93;1.02;;;;;;;-146.27;100.00;48411.53;5091457;28;20032;-67
2023/03/07 06:50:37;;;;;;;4.38;0.55;;;;;;;-146.27;100.00;48407.56;5084805;28;20036;-68
2023/03/07 06:53:02;;;;;;;4.65;1.23;;;;;;;-146.27;100.00;48417.50;5093069;28;20100;-69
2023/03/07 06:55:28;;;;;;;5.63;0.82;;;;;;;-146.27;100.00;48377.69;5083405;28;20039;-69
2023/03/07 06:57:53;;;;;;;2.00;0.60;;;;;;;-146.27;100.00;48387.63;5090368;28;20028;-70
2023/03/07 07:00:19;;;;;;;7.53;1.42;;;;;;;-146.27;100.00;48383.66;5095026;28;20028;-69
2023/03/07 07:02:44;;;;;;;5.57;0.50;;;;;;;-146.27;100.00;48391.63;5091564;28;20368;-67
2023/03/07 07:05:10;;;;;;;4.75;0.82;;;;;;;-146.27;100.00;48417.50;5090864;28;20043;-69
2023/03/07 07:07:35;;;;;;;6.15;1.00;;;;;;;-146.27;100.00;48409.53;5088734;28;20384;-68
2023/03/07 07:10:01;;;;;;;9.40;1.15;;;;;;;-146.27;100.00;48387.63;5092699;28;20147;-70
2023/03/07 07:12:26;;;;;;;0.50;0.50;;;;;;;-146.27;100.00;48423.50;5084405;28;20028;-69
2023/03/07 07:14:51;;;;;;;1.88;0.50;;;;;;;-146.27;100.00;48427.47;5086270;28;20024;-70
2023/03/07 07:17:17;;;;;;;4.82;1.45;;;;;;;-146.27;100.00;48401.56;5090917;28;20718;-71
2023/03/07 07:19:42;;;;;;;6.93;0.80;;;;;;;-146.27;100.00;48379.66;5090722;28;20069;-69
2023/03/07 07:22:10;;;;;;;3.63;1.08;;;;;;;-146.27;100.00;48409.53;5090235;28;20051;-69
2023/03/07 07:24:39;;;;;;;2.60;1.33;;;;;;;-146.27;100.00;48399.59;5086240;28;20448;-68
2023/03/07 07:27:05;;;;;;;1.58;0.70;;;;;;;-146.27;100.00;48423.50;5089580;28;20020;-68
2023/03/07 07:29:30;;;;;;;0.50;0.50;;;;;;;-146.27;100.00;48427.47;5089442;28;20125;-68
2023/03/07 07:31:55;;;;;;;1.70;0.80;;;;;;;-146.27;100.00;48403.56;5090475;28;20055;-68
2023/03/07 07:34:21;;;;;;;2.85;1.15;;;;;;;-146.27;100.00;48395.59;5093684;28;20119;-69
2023/03/07 07:36:46;;;;;;;2.22;0.60;;;;;;;-146.27;100.00;48423.50;5089691;28;20024;-68
2023/03/07 07:39:14;;;;;;;4.53;1.15;;;;;;;-146.27;100.00;48383.66;5085644;28;20029;-67
2023/03/07 07:41:39;;;;;;;4.88;0.70;;;;;;;-146.27;100.00;48399.59;5087827;28;20027;-67
2023/03/07 07:44:05;;;;;;;5.10;0.88;;;;;;;-146.27;100.00;48373.69;5094214;28;20110;-66
2023/03/07 07:46:30;;;;;;;6.00;0.85;;;;;;;-146.27;100.00;48411.53;5090953;28;20457;-67
2023/03/07 07:48:55;;;;;;;6.38;0.80;;;;;;;-146.27;100.00;48423.50;5092457;28;20067;-68
2023/03/07 07:51:21;;;;;;;5.03;1.35;;;;;;;-146.27;100.00;48409.53;5090869;28;20024;-68
2023/03/07 07:53:46;;;;;;;2.08;0.90;;;;;;;-146.27;100.00;48405.56;5094346;28;20494;-68
2023/03/07 07:56:12;;;;;;;1.23;0.40;;;;;;;-146.27;100.00;48407.56;5093785;28;20043;-69
2023/03/07 07:58:38;;;;;;;11.85;1.13;;;;;;;-146.27;100.00;48415.53;5093848;28;20031;-67
2023/03/07 08:01:18;;;;;;;2.92;0.80;;;;;;;-146.27;100.00;48389.63;5089737;28;20028;-69
2023/03/07 08:03:44;;;;;;;3.30;0.77;;;;;;;-146.27;100.00;48417.50;5081754;28;20059;-68
2023/03/07 08:06:09;;;;;;;4.75;1.13;;;;;;;-146.27;100.00;48419.50;5094037;28;20075;-68
2023/03/07 08:08:35;;;;;;;5.28;0.80;;;;;;;-146.27;100.00;48403.56;5085276;28;20029;-68
2023/03/07 08:11:00;;;;;;;4.68;0.85;;;;;;;-146.27;100.00;48393.63;5086176;28;20089;-67
2023/03/07 08:13:27;;;;;;;3.13;0.80;;;;;;;-146.27;100.00;48399.59;5084765;28;20039;-68
2023/03/07 08:15:52;;;;;;;4.82;1.08;;;;;;;-146.27;100.00;48375.69;5082594;27;20149;-67
2023/03/07 08:18:18;;;;;;;5.55;0.85;;;;;;;-146.27;100.00;48435.44;5079835;28;20025;-69
2023/03/07 08:20:43;;;;;;;9.15;0.70;;;;;;;-146.27;100.00;48391.63;5090884;28;20024;-68
2023/03/07 08:23:09;;;;;;;1.13;0.45;;;;;;;-146.27;100.00;48429.47;5093189;28;20115;-69
2023/03/07 08:25:34;;;;;;;3.13;0.70;;;;;;;-146.27;100.00;48445.41;5093425;28;20502;-68
2023/03/07 08:28:02;;;;;;;8.18;1.67;;;;;;;-146.27;100.00;48397.59;5084372;28;20119;-70
2023/03/07 08:30:29;;;;;;;5.70;1.10;;;;;;;-146.27;100.00;48419.50;5080808;28;20035;-68
2023/03/07 08:32:55;;;;;;;15.77;1.40;;;;;;;-146.27;100.00;48375.69;5079940;28;20116;-68
2023/03/07 08:35:22;;;;;;;6.35;1.40;;;;;;;-146.27;100.00;48427.47;5091540;28;20036;-67
2023/03/07 08:37:52;;;;;;;4.68;0.90;;;;;;;-146.27;100.00;48395.59;5091017;28;20368;-68
2023/03/07 08:40:17;;;;;;;9.45;1.08;;;;;;;-146.27;100.00;48395.59;5098120;28;20128;-67
2023/03/07 08:42:43;;;;;;;6.53;1.05;;;;;;;-146.27;100.00;48381.66;5092505;28;20135;-68
2023/03/07 08:45:08;;;;;;;2.65;1.00;;;;;;;-146.27;100.00;48403.56;5082599;28;20016;-68
2023/03/07 08:47:34;;;;;;;8.38;0.95;;;;;;;-146.27;100.00;48423.50;5091430;28;20024;-70
2023/03/07 08:49:59;;;;;;;2.28;0.77;;;;;;;-146.27;100.00;48459.34;5089996;28;20047;-69
2023/03/07 08:52:24;;;;;;;9.52;1.05;;;;;;;-146.27;100.00;48395.59;5099191;28;20035;-69
2023/03/07 08:54:50;;;;;;;7.22;1.10;;;;;;;-146.27;100.00;48397.59;5082483;28;20269;-70
2023/03/07 08:57:15;;;;;;;2.95;0.55;;;;;;;-146.27;100.00;48381.66;5090175;28;20020;-68
2023/03/07 08:59:41;;;;;;;2.05;1.10;;;;;;;-146.27;100.00;48401.56;5087449;28;20038;-68
2023/03/07 09:02:09;;;;;;;4.20;0.98;;;;;;;-146.27;100.00;48413.53;5081775;28;20053;-71
2023/03/07 09:04:34;;;;;;;6.15;1.00;;;;;;;-146.27;100.00;48415.53;5088026;28;21733;-70
2023/03/07 09:06:59;;;;;;;4.10;1.08;;;;;;;-146.27;100.00;48427.47;5088141;28;20164;-69
2023/03/07 09:09:27;;;;;;;10.52;0.80;;;;;;;-146.27;100.00;48395.59;5084053;28;20055;-70
2023/03/07 09:11:53;;;;;;;1.20;0.55;;;;;;;-146.27;100.00;48427.47;5093870;28;20055;-69
2023/03/07 09:14:18;;;;;;;5.05;0.60;;;;;;;-146.27;100.00;48417.50;5080660;28;20515;-68
2023/03/07 09:16:43;;;;;;;6.13;0.80;;;;;;;-146.27;100.00;48409.53;5092416;28;20034;-69
2023/03/07 09:19:09;;;;;;;6.22;0.60;;;;;;;-146.27;100.00;48435.44;5094363;28;20025;-69
2023/03/07 09:21:34;;;;;;;7.03;1.80;;;;;;;-146.27;100.00;48439.41;5095571;28;20028;-68
2023/03/07 09:24:00;;;;;;;2.80;0.73;;;;;;;-146.27;100.00;48401.56;5077985;28;20503;-68
2023/03/07 09:26:25;;;;;;;3.60;0.68;;;;;;;-146.27;100.00;48405.56;5074818;28;20582;-67
2023/03/07 09:28:50;;;;;;;2.70;1.30;;;;;;;-146.27;100.00;48389.63;5081585;28;20414;-68
2023/03/07 09:31:16;;;;;;;3.60;1.10;;;;;;;-146.27;100.00;48385.66;5090474;28;20176;-69
2023/03/07 09:33:42;;;;;;;3.20;0.63;;;;;;;-146.27;100.00;48411.53;5077046;28;20476;-68
2023/03/07 09:36:10;;;;;;;2.83;0.40;;;;;;;-146.27;100.00;48393.63;5071524;28;20029;-69
2023/03/07 09:38:36;;;;;;;7.32;0.90;;;;;;;-146.27;100.00;48401.56;5090116;28;20088;-69
2023/03/07 09:41:35;;;;;;;1.88;0.50;;;;;;;-146.27;100.00;48401.56;5090990;28;20493;-69
2023/03/07 09:44:09;;;;;;;7.72;0.50;;;;;;;-146.27;100.00;48371.69;5071334;28;20117;-68
2023/03/07 09:46:49;;;;;;;6.55;0.65;;;;;;;-146.27;100.00;48411.53;5082281;28;20025;-69
2023/03/07 09:49:20;;;;;;;8.13;0.98;;;;;;;-146.27;100.00;48403.56;5079311;28;20024;-67
2023/03/07 09:51:50;;;;;;;4.60;0.70;;;;;;;-146.27;100.00;48349.78;5083853;28;20035;-68
2023/03/07 09:54:18;;;;;;;3.47;0.45;;;;;;;-146.27;100.00;48379.66;5078236;28;20468;-68
2023/03/07 09:56:56;;;;;;;4.45;0.65;;;;;;;-146.27;100.00;48407.56;5078549;28;20086;-68
2023/03/07 09:59:27;;;;;;;5.28;0.98;;;;;;;-146.27;100.00;48379.66;5061803;28;20040;-68
2023/03/07 10:02:12;;;;;;;2.05;0.47;;;;;;;-146.27;100.00;48419.50;5078681;28;20023;-69
2023/03/07 10:04:42;;;;;;;;;;;;;;;-146.27;100.00;48391.63;5080481;28;20028;-68
2023/03/07 10:07:10;;;;;;;2.10;0.50;;;;;;;-146.27;100.00;48395.59;5088711;28;19916;-67
2023/03/07 10:09:36;;;;;;;3.28;0.80;;;;;;;-146.27;100.00;48359.75;5081608;28;20032;-68
2023/03/07 10:12:10;;;;;;;5.05;0.40;;;;;;;-146.27;100.00;48421.50;5084547;28;20027;-67
2023/03/07 10:14:54;;;;;;;6.72;0.63;;;;;;;-146.27;100.00;48373.69;5084768;28;20027;-69
2023/03/07 10:17:39;;;;;;;5.32;0.60;;;;;;;-146.27;100.00;48415.53;5090806;28;20028;-67
2023/03/07 10:20:31;;;;;;;3.30;0.38;;;;;;;-146.27;100.00;48391.63;5086444;28;20031;-67
2023/03/07 10:23:15;;;;;;;3.55;0.70;;;;;;;-146.27;100.00;48433.44;5088545;28;20040;-66
2023/03/07 10:25:49;;;;;;;;;;;;;;;-146.27;100.00;48407.56;5085051;28;20148;-68
2023/03/07 10:28:21;;;;;;;8.85;0.70;;;;;;;-146.27;100.00;48413.53;5090902;28;19919;-70
2023/03/07 10:30:50;;;;;;;7.40;0.60;;;;;;;-146.27;100.00;48381.66;5081323;28;20491;-68
2023/03/07 10:33:17;;;;;;;5.35;0.50;;;;;;;-146.27;100.00;48399.59;5091211;28;20031;-68
2023/03/07 10:35:50;;;;;;;3.47;0.40;;;;;;;-146.27;100.00;48427.47;5102757;28;20027;-68
2023/03/07 10:38:25;;;;;;;2.22;0.60;;;;;;;-146.27;100.00;48383.66;5085789;28;20028;-68
2023/03/07 10:40:59;;;;;;;2.10;0.40;;;;;;;-146.27;100.00;48389.63;5092089;28;20511;-67
2023/03/07 10:43:28;;;;;;;4.63;0.65;;;;;;;-146.27;100.00;48363.75;5087264;28;20070;-67
2023/03/07 10:46:11;;;;;;;7.18;0.90;;;;;;;-146.27;100.00;48395.59;5079500;28;20028;-68
2023/03/07 10:48:54;;;;;;;3.85;0.63;;;;;;;-146.27;100.00;48377.69;5093303;28;20028;-69
2023/03/07 10:51:54;;;;;;;2.55;0.47;;;;;;;-146.27;100.00;48397.59;5095768;28;20447;-68
2023/03/07 10:54:25;;;;;;;5.90;0.70;;;;;;;-146.27;100.00;48411.53;5080315;28;20024;-68
2023/03/07 10:57:09;;;;;;;2.75;0.60;;;;;;;-146.27;100.00;48395.59;5083165;28;20024;-70
2023/03/07 10:59:36;;;;;;;3.35;0.80;;;;;;;-146.27;100.00;48395.59;5078436;28;20036;-68
2023/03/07 11:02:20;;;;;;;2.22;0.70;;;;;;;-146.27;100.00;48371.69;5086263;28;20035;-68
2023/03/07 11:04:46;;;;;;;8.38;0.90;;;;;;;-146.27;100.00;48411.53;5093950;28;20028;-68
2023/03/07 11:07:26;;;;;;;5.40;0.63;;;;;;;-146.27;100.00;48421.50;5093690;28;20075;-70
2023/03/07 11:09:52;;;;;;;2.35;0.60;;;;;;;-146.27;100.00;48383.66;5079701;28;20115;-69
2023/03/07 11:12:22;;;;;;;1.52;0.60;;;;;;;-146.27;100.00;48355.78;5094072;28;20578;-69